sensor_id;sensor_type;location;lat;lon;timestamp;temperature;humidity
1956;DHT22;978;48.314;11.562;2024-01-16T00:01:58;20.40;64.50
1956;DHT22;978;48.314;11.562;2024-01-16T00:04:26;20.50;64.60
1956;DHT22;978;48.314;11.562;2024-01-16T00:06:55;20.50;64.60
1956;DHT22;978;48.314;11.562;2024-01-16T00:09:22;20.50;64.60
1956;DHT22;978;48.314;11.562;2024-01-16T00:11:49;20.50;64.10
1956;DHT22;978;48.314;11.562;2024-01-16T00:14:15;20.50;64.60
1956;DHT22;978;48.314;11.562;2024-01-16T00:16:42;20.40;64.50
1956;DHT22;978;48.314;11.562;2024-01-16T00:19:10;20.50;64.60
1956;DHT22;978;48.314;11.562;2024-01-16T00:21:39;20.40;64.50
1956;DHT22;978;48.314;11.562;2024-01-16T00:24:06;20.50;64.60
1956;DHT22;978;48.314;11.562;2024-01-16T00:26:34;20.40;64.50
1956;DHT22;978;48.314;11.562;2024-01-16T00:29:00;20.40;64.50
1956;DHT22;978;48.314;11.562;2024-01-16T00:31:27;20.40;64.50
1956;DHT22;978;48.314;11.562;2024-01-16T00:33:54;20.50;64.60
1956;DHT22;978;48.314;11.562;2024-01-16T00:36:21;20.40;64.50
1956;DHT22;978;48.314;11.562;2024-01-16T00:38:49;20.50;64.60
1956;DHT22;978;48.314;11.562;2024-01-16T00:41:16;20.40;64.50
1956;DHT22;978;48.314;11.562;2024-01-16T00:43:43;20.50;64.60
1956;DHT22;978;48.314;11.562;2024-01-16T00:46:10;20.40;64.50
1956;DHT22;978;48.314;11.562;2024-01-16T00:48:36;20.40;64.50
1956;DHT22;978;48.314;11.562;2024-01-16T00:51:04;20.50;64.50
1956;DHT22;978;48.314;11.562;2024-01-16T00:55:59;20.40;64.00
1956;DHT22;978;48.314;11.562;2024-01-16T00:58:25;20.50;64.60
1956;DHT22;978;48.314;11.562;2024-01-16T01:00:52;20.40;64.50
1956;DHT22;978;48.314;11.562;2024-01-16T01:03:20;20.40;64.50
1956;DHT22;978;48.314;11.562;2024-01-16T01:05:46;20.50;64.50
1956;DHT22;978;48.314;11.562;2024-01-16T01:08:13;20.40;64.50
1956;DHT22;978;48.314;11.562;2024-01-16T01:10:40;20.40;64.50
1956;DHT22;978;48.314;11.562;2024-01-16T01:13:08;20.40;64.50
1956;DHT22;978;48.314;11.562;2024-01-16T01:15:35;20.50;64.50
1956;DHT22;978;48.314;11.562;2024-01-16T01:18:01;20.40;64.50
1956;DHT22;978;48.314;11.562;2024-01-16T01:20:29;20.50;64.10
1956;DHT22;978;48.314;11.562;2024-01-16T01:22:56;20.40;64.50
1956;DHT22;978;48.314;11.562;2024-01-16T01:25:23;20.50;64.60
1956;DHT22;978;48.314;11.562;2024-01-16T01:27:51;20.40;64.50
1956;DHT22;978;48.314;11.562;2024-01-16T01:30:19;20.50;64.60
1956;DHT22;978;48.314;11.562;2024-01-16T01:32:46;20.50;64.60
1956;DHT22;978;48.314;11.562;2024-01-16T01:35:13;20.50;64.60
1956;DHT22;978;48.314;11.562;2024-01-16T01:37:40;20.40;64.50
1956;DHT22;978;48.314;11.562;2024-01-16T01:40:08;20.40;64.50
1956;DHT22;978;48.314;11.562;2024-01-16T01:42:34;20.40;64.50
1956;DHT22;978;48.314;11.562;2024-01-16T01:45:01;20.40;64.50
1956;DHT22;978;48.314;11.562;2024-01-16T01:47:31;20.50;64.50
1956;DHT22;978;48.314;11.562;2024-01-16T01:49:58;20.40;64.50
1956;DHT22;978;48.314;11.562;2024-01-16T01:52:25;20.40;64.50
1956;DHT22;978;48.314;11.562;2024-01-16T01:54:51;20.40;64.50
1956;DHT22;978;48.314;11.562;2024-01-16T01:57:18;20.40;64.50
1956;DHT22;978;48.314;11.562;2024-01-16T01:59:45;20.40;64.50
1956;DHT22;978;48.314;11.562;2024-01-16T02:02:12;20.50;64.50
1956;DHT22;978;48.314;11.562;2024-01-16T02:04:41;20.40;64.50
1956;DHT22;978;48.314;11.562;2024-01-16T02:07:08;20.50;64.50
1956;DHT22;978;48.314;11.562;2024-01-16T02:09:36;20.50;64.50
1956;DHT22;978;48.314;11.562;2024-01-16T02:12:04;20.40;64.40
1956;DHT22;978;48.314;11.562;2024-01-16T02:14:31;20.50;64.50
1956;DHT22;978;48.314;11.562;2024-01-16T02:16:57;20.40;63.90
1956;DHT22;978;48.314;11.562;2024-01-16T02:19:24;20.50;64.50
1956;DHT22;978;48.314;11.562;2024-01-16T02:21:57;20.50;64.40
1956;DHT22;978;48.314;11.562;2024-01-16T02:24:27;20.50;64.50
1956;DHT22;978;48.314;11.562;2024-01-16T02:26:53;20.50;64.50
1956;DHT22;978;48.314;11.562;2024-01-16T02:29:20;20.40;64.40
1956;DHT22;978;48.314;11.562;2024-01-16T02:31:47;20.40;64.30
1956;DHT22;978;48.314;11.562;2024-01-16T02:34:14;20.50;64.40
1956;DHT22;978;48.314;11.562;2024-01-16T02:36:40;20.50;64.40
1956;DHT22;978;48.314;11.562;2024-01-16T02:39:07;20.50;64.40
1956;DHT22;978;48.314;11.562;2024-01-16T02:41:36;20.40;64.30
1956;DHT22;978;48.314;11.562;2024-01-16T02:44:03;20.40;64.30
1956;DHT22;978;48.314;11.562;2024-01-16T02:46:30;20.40;64.30
1956;DHT22;978;48.314;11.562;2024-01-16T02:48:58;20.40;64.90
1956;DHT22;978;48.314;11.562;2024-01-16T02:51:24;20.40;64.30
1956;DHT22;978;48.314;11.562;2024-01-16T02:53:51;20.50;64.40
1956;DHT22;978;48.314;11.562;2024-01-16T02:56:18;20.40;64.30
1956;DHT22;978;48.314;11.562;2024-01-16T02:58:46;20.50;64.30
1956;DHT22;978;48.314;11.562;2024-01-16T03:01:14;20.40;64.30
1956;DHT22;978;48.314;11.562;2024-01-16T03:03:41;16.70;62.20
1956;DHT22;978;48.314;11.562;2024-01-16T03:06:07;20.40;64.30
1956;DHT22;978;48.314;11.562;2024-01-16T03:08:34;20.50;64.30
1956;DHT22;978;48.314;11.562;2024-01-16T03:11:01;20.40;64.20
1956;DHT22;978;48.314;11.562;2024-01-16T03:13:28;20.50;64.30
1956;DHT22;978;48.314;11.562;2024-01-16T03:15:56;20.40;64.20
1956;DHT22;978;48.314;11.562;2024-01-16T03:18:23;20.40;64.20
1956;DHT22;978;48.314;11.562;2024-01-16T03:20:49;20.50;64.30
1956;DHT22;978;48.314;11.562;2024-01-16T03:23:16;20.40;64.20
1956;DHT22;978;48.314;11.562;2024-01-16T03:25:43;20.50;64.30
1956;DHT22;978;48.314;11.562;2024-01-16T03:28:10;20.50;64.20
1956;DHT22;978;48.314;11.562;2024-01-16T03:30:36;20.40;64.20
1956;DHT22;978;48.314;11.562;2024-01-16T03:33:05;24.00;66.20
1956;DHT22;978;48.314;11.562;2024-01-16T03:35:31;20.40;63.60
1956;DHT22;978;48.314;11.562;2024-01-16T03:37:58;20.40;64.20
1956;DHT22;978;48.314;11.562;2024-01-16T03:40:25;20.40;64.20
1956;DHT22;978;48.314;11.562;2024-01-16T03:42:52;20.40;64.20
1956;DHT22;978;48.314;11.562;2024-01-16T03:45:18;20.40;64.10
1956;DHT22;978;48.314;11.562;2024-01-16T03:47:45;20.40;64.20
1956;DHT22;978;48.314;11.562;2024-01-16T03:50:13;20.40;64.20
1956;DHT22;978;48.314;11.562;2024-01-16T03:52:40;20.40;64.20
1956;DHT22;978;48.314;11.562;2024-01-16T03:55:07;20.40;64.20
1956;DHT22;978;48.314;11.562;2024-01-16T03:57:34;20.40;64.20
1956;DHT22;978;48.314;11.562;2024-01-16T04:00:01;20.40;64.20
1956;DHT22;978;48.314;11.562;2024-01-16T04:02:30;20.50;64.20
1956;DHT22;978;48.314;11.562;2024-01-16T04:04:57;20.50;63.70
1956;DHT22;978;48.314;11.562;2024-01-16T04:07:25;20.40;64.10
1956;DHT22;978;48.314;11.562;2024-01-16T04:09:52;20.40;64.20
1956;DHT22;978;48.314;11.562;2024-01-16T04:12:19;20.40;64.10
1956;DHT22;978;48.314;11.562;2024-01-16T04:14:46;20.40;64.10
1956;DHT22;978;48.314;11.562;2024-01-16T04:17:12;20.40;64.10
1956;DHT22;978;48.314;11.562;2024-01-16T04:19:39;20.50;64.20
1956;DHT22;978;48.314;11.562;2024-01-16T04:22:06;20.50;64.20
1956;DHT22;978;48.314;11.562;2024-01-16T04:24:34;20.50;64.20
1956;DHT22;978;48.314;11.562;2024-01-16T04:27:02;20.50;64.20
1956;DHT22;978;48.314;11.562;2024-01-16T04:29:29;20.40;64.10
1956;DHT22;978;48.314;11.562;2024-01-16T04:31:56;20.50;64.20
1956;DHT22;978;48.314;11.562;2024-01-16T04:34:23;20.40;64.10
1956;DHT22;978;48.314;11.562;2024-01-16T04:36:49;20.50;64.20
1956;DHT22;978;48.314;11.562;2024-01-16T04:39:16;20.50;64.30
1956;DHT22;978;48.314;11.562;2024-01-16T04:41:44;20.40;64.20
1956;DHT22;978;48.314;11.562;2024-01-16T04:44:11;20.50;64.30
1956;DHT22;978;48.314;11.562;2024-01-16T04:46:38;20.40;64.20
1956;DHT22;978;48.314;11.562;2024-01-16T04:49:04;20.40;64.20
1956;DHT22;978;48.314;11.562;2024-01-16T04:51:31;20.40;64.20
1956;DHT22;978;48.314;11.562;2024-01-16T04:53:58;20.40;64.20
1956;DHT22;978;48.314;11.562;2024-01-16T04:56:25;20.40;64.20
1956;DHT22;978;48.314;11.562;2024-01-16T04:58:53;20.50;64.30
1956;DHT22;978;48.314;11.562;2024-01-16T05:01:20;20.50;64.20
1956;DHT22;978;48.314;11.562;2024-01-16T05:03:46;20.40;63.60
1956;DHT22;978;48.314;11.562;2024-01-16T05:08:41;20.40;63.50
1956;DHT22;978;48.314;11.562;2024-01-16T05:11:08;20.50;64.10
1956;DHT22;978;48.314;11.562;2024-01-16T05:13:35;20.50;64.10
1956;DHT22;978;48.314;11.562;2024-01-16T05:16:03;20.40;64.00
1956;DHT22;978;48.314;11.562;2024-01-16T05:18:30;20.50;64.00
1956;DHT22;978;48.314;11.562;2024-01-16T05:20:58;20.40;64.00
1956;DHT22;978;48.314;11.562;2024-01-16T05:23:24;20.50;64.00
1956;DHT22;978;48.314;11.562;2024-01-16T05:25:51;20.40;63.90
1956;DHT22;978;48.314;11.562;2024-01-16T05:28:18;20.50;64.00
1956;DHT22;978;48.314;11.562;2024-01-16T05:30:45;20.50;64.00
1956;DHT22;978;48.314;11.562;2024-01-16T05:33:13;20.40;63.90
1956;DHT22;978;48.314;11.562;2024-01-16T05:35:39;20.50;64.00
1956;DHT22;978;48.314;11.562;2024-01-16T05:38:06;20.50;64.00
1956;DHT22;978;48.314;11.562;2024-01-16T05:40:33;20.40;63.90
1956;DHT22;978;48.314;11.562;2024-01-16T05:43:00;20.40;63.90
1956;DHT22;978;48.314;11.562;2024-01-16T05:45:27;20.40;63.90
1956;DHT22;978;48.314;11.562;2024-01-16T05:47:54;20.40;63.90
1956;DHT22;978;48.314;11.562;2024-01-16T05:50:23;20.40;63.80
1956;DHT22;978;48.314;11.562;2024-01-16T05:52:50;20.50;63.90
1956;DHT22;978;48.314;11.562;2024-01-16T05:55:16;20.40;63.80
1956;DHT22;978;48.314;11.562;2024-01-16T05:57:43;20.40;63.80
1956;DHT22;978;48.314;11.562;2024-01-16T06:00:11;20.50;63.90
1956;DHT22;978;48.314;11.562;2024-01-16T06:02:38;20.40;63.30
1956;DHT22;978;48.314;11.562;2024-01-16T06:05:04;20.40;63.80
1956;DHT22;978;48.314;11.562;2024-01-16T06:07:33;20.50;63.90
1956;DHT22;978;48.314;11.562;2024-01-16T06:10:00;20.40;63.20
1956;DHT22;978;48.314;11.562;2024-01-16T06:12:28;20.40;63.80
1956;DHT22;978;48.314;11.562;2024-01-16T06:14:55;20.40;63.80
1956;DHT22;978;48.314;11.562;2024-01-16T06:17:23;20.40;63.70
1956;DHT22;978;48.314;11.562;2024-01-16T06:19:50;20.40;63.70
1956;DHT22;978;48.314;11.562;2024-01-16T06:22:17;20.40;63.70
1956;DHT22;978;48.314;11.562;2024-01-16T06:24:45;20.40;63.70
1956;DHT22;978;48.314;11.562;2024-01-16T06:27:12;20.40;63.70
1956;DHT22;978;48.314;11.562;2024-01-16T06:29:44;20.40;63.70
1956;DHT22;978;48.314;11.562;2024-01-16T06:32:11;20.50;63.70
1956;DHT22;978;48.314;11.562;2024-01-16T06:34:38;20.50;63.80
1956;DHT22;978;48.314;11.562;2024-01-16T06:37:05;20.50;63.70
1956;DHT22;978;48.314;11.562;2024-01-16T06:39:32;20.50;63.70
1956;DHT22;978;48.314;11.562;2024-01-16T06:42:00;20.40;63.70
1956;DHT22;978;48.314;11.562;2024-01-16T06:44:26;20.40;63.70
1956;DHT22;978;48.314;11.562;2024-01-16T06:46:53;20.40;63.60
1956;DHT22;978;48.314;11.562;2024-01-16T06:49:20;20.50;63.70
1956;DHT22;978;48.314;11.562;2024-01-16T06:51:47;20.40;63.60
1956;DHT22;978;48.314;11.562;2024-01-16T06:54:13;20.40;63.60
1956;DHT22;978;48.314;11.562;2024-01-16T06:56:40;20.40;63.60
1956;DHT22;978;48.314;11.562;2024-01-16T06:59:08;20.40;64.20
1956;DHT22;978;48.314;11.562;2024-01-16T07:01:35;20.40;63.60
1956;DHT22;978;48.314;11.562;2024-01-16T07:04:01;20.40;63.60
1956;DHT22;978;48.314;11.562;2024-01-16T07:06:28;20.40;63.60
1956;DHT22;978;48.314;11.562;2024-01-16T07:08:55;20.40;63.60
1956;DHT22;978;48.314;11.562;2024-01-16T07:11:22;20.40;63.60
1956;DHT22;978;48.314;11.562;2024-01-16T07:13:49;20.40;63.50
1956;DHT22;978;48.314;11.562;2024-01-16T07:16:17;20.40;63.50
1956;DHT22;978;48.314;11.562;2024-01-16T07:18:43;20.40;63.50
1956;DHT22;978;48.314;11.562;2024-01-16T07:21:17;20.40;63.60
1956;DHT22;978;48.314;11.562;2024-01-16T07:23:44;20.40;63.50
1956;DHT22;978;48.314;11.562;2024-01-16T07:26:10;20.40;63.50
1956;DHT22;978;48.314;11.562;2024-01-16T07:28:37;20.40;63.50
1956;DHT22;978;48.314;11.562;2024-01-16T07:31:04;20.40;63.50
1956;DHT22;978;48.314;11.562;2024-01-16T07:33:33;20.40;63.50
1956;DHT22;978;48.314;11.562;2024-01-16T07:35:59;20.50;63.60
1956;DHT22;978;48.314;11.562;2024-01-16T07:38:26;20.40;63.50
1956;DHT22;978;48.314;11.562;2024-01-16T07:40:53;20.40;63.50
1956;DHT22;978;48.314;11.562;2024-01-16T07:43:21;20.40;63.50
1956;DHT22;978;48.314;11.562;2024-01-16T07:45:48;20.40;63.50
1956;DHT22;978;48.314;11.562;2024-01-16T07:48:15;20.40;63.50
1956;DHT22;978;48.314;11.562;2024-01-16T07:50:43;20.40;63.50
1956;DHT22;978;48.314;11.562;2024-01-16T07:53:11;20.40;63.50
1956;DHT22;978;48.314;11.562;2024-01-16T07:55:38;20.40;63.50
1956;DHT22;978;48.314;11.562;2024-01-16T07:58:04;22.40;64.70
1956;DHT22;978;48.314;11.562;2024-01-16T08:00:31;19.40;63.00
1956;DHT22;978;48.314;11.562;2024-01-16T08:02:58;20.40;63.50
1956;DHT22;978;48.314;11.562;2024-01-16T08:05:25;20.40;63.50
1956;DHT22;978;48.314;11.562;2024-01-16T08:07:54;20.40;63.50
1956;DHT22;978;48.314;11.562;2024-01-16T08:10:21;20.40;63.50
1956;DHT22;978;48.314;11.562;2024-01-16T08:12:48;20.40;63.50
1956;DHT22;978;48.314;11.562;2024-01-16T08:15:14;20.40;63.50
1956;DHT22;978;48.314;11.562;2024-01-16T08:17:41;20.40;63.50
1956;DHT22;978;48.314;11.562;2024-01-16T08:20:09;20.40;63.50
1956;DHT22;978;48.314;11.562;2024-01-16T08:22:36;20.40;63.50
1956;DHT22;978;48.314;11.562;2024-01-16T08:25:05;20.40;63.50
1956;DHT22;978;48.314;11.562;2024-01-16T08:27:32;20.40;63.50
1956;DHT22;978;48.314;11.562;2024-01-16T08:29:59;20.40;63.50
1956;DHT22;978;48.314;11.562;2024-01-16T08:32:26;20.40;63.00
1956;DHT22;978;48.314;11.562;2024-01-16T08:34:53;20.40;63.50
1956;DHT22;978;48.314;11.562;2024-01-16T08:37:19;20.40;63.50
1956;DHT22;978;48.314;11.562;2024-01-16T08:39:46;20.40;63.50
1956;DHT22;978;48.314;11.562;2024-01-16T08:42:14;20.40;63.50
1956;DHT22;978;48.314;11.562;2024-01-16T08:44:43;20.40;63.50
1956;DHT22;978;48.314;11.562;2024-01-16T08:47:09;20.40;63.50
1956;DHT22;978;48.314;11.562;2024-01-16T08:49:36;20.40;63.50
1956;DHT22;978;48.314;11.562;2024-01-16T08:52:04;20.40;63.50
1956;DHT22;978;48.314;11.562;2024-01-16T08:54:31;20.40;63.00
1956;DHT22;978;48.314;11.562;2024-01-16T08:56:57;20.40;63.50
1956;DHT22;978;48.314;11.562;2024-01-16T08:59:26;20.40;63.50
1956;DHT22;978;48.314;11.562;2024-01-16T09:01:53;20.40;63.50
1956;DHT22;978;48.314;11.562;2024-01-16T09:04:20;20.40;63.50
1956;DHT22;978;48.314;11.562;2024-01-16T09:06:47;20.40;63.50
1956;DHT22;978;48.314;11.562;2024-01-16T09:09:13;20.40;63.70
1956;DHT22;978;48.314;11.562;2024-01-16T09:11:41;20.40;63.60
1956;DHT22;978;48.314;11.562;2024-01-16T09:14:08;20.40;63.50
1956;DHT22;978;48.314;11.562;2024-01-16T09:16:36;20.40;63.60
1956;DHT22;978;48.314;11.562;2024-01-16T09:19:04;20.50;63.60
1956;DHT22;978;48.314;11.562;2024-01-16T09:21:31;20.40;63.10
1956;DHT22;978;48.314;11.562;2024-01-16T09:23:57;20.40;63.60
1956;DHT22;978;48.314;11.562;2024-01-16T09:26:24;20.40;63.60
1956;DHT22;978;48.314;11.562;2024-01-16T09:28:51;20.40;63.60
1956;DHT22;978;48.314;11.562;2024-01-16T09:31:17;20.40;63.60
1956;DHT22;978;48.314;11.562;2024-01-16T09:33:45;20.40;63.60
1956;DHT22;978;48.314;11.562;2024-01-16T09:36:12;20.40;63.60
1956;DHT22;978;48.314;11.562;2024-01-16T09:38:39;20.40;63.60
1956;DHT22;978;48.314;11.562;2024-01-16T09:41:06;20.40;63.60
1956;DHT22;978;48.314;11.562;2024-01-16T09:43:33;20.40;63.60
1956;DHT22;978;48.314;11.562;2024-01-16T09:46:01;20.40;63.60
1956;DHT22;978;48.314;11.562;2024-01-16T09:48:28;20.40;63.70
1956;DHT22;978;48.314;11.562;2024-01-16T09:50:57;20.40;63.60
1956;DHT22;978;48.314;11.562;2024-01-16T09:53:24;20.40;63.60
1956;DHT22;978;48.314;11.562;2024-01-16T09:55:54;20.40;63.70
1956;DHT22;978;48.314;11.562;2024-01-16T09:58:21;20.40;63.70
1956;DHT22;978;48.314;11.562;2024-01-16T10:00:49;20.40;63.70
1956;DHT22;978;48.314;11.562;2024-01-16T10:03:17;20.40;63.70
1956;DHT22;978;48.314;11.562;2024-01-16T10:05:46;20.40;63.70
1956;DHT22;978;48.314;11.562;2024-01-16T10:08:14;20.40;63.70
1956;DHT22;978;48.314;11.562;2024-01-16T10:10:41;20.40;63.70
1956;DHT22;978;48.314;11.562;2024-01-16T10:13:08;20.40;63.70
1956;DHT22;978;48.314;11.562;2024-01-16T10:15:35;20.40;63.70
1956;DHT22;978;48.314;11.562;2024-01-16T10:18:03;22.50;64.20
1956;DHT22;978;48.314;11.562;2024-01-16T10:20:34;20.40;63.20
1956;DHT22;978;48.314;11.562;2024-01-16T10:23:01;20.40;63.50
1956;DHT22;978;48.314;11.562;2024-01-16T10:25:30;20.40;63.60
1956;DHT22;978;48.314;11.562;2024-01-16T10:28:04;20.40;63.60
1956;DHT22;978;48.314;11.562;2024-01-16T10:30:33;20.40;63.60
1956;DHT22;978;48.314;11.562;2024-01-16T10:33:12;20.40;63.50
1956;DHT22;978;48.314;11.562;2024-01-16T10:35:39;20.40;63.50
1956;DHT22;978;48.314;11.562;2024-01-16T10:38:06;20.40;63.50
1956;DHT22;978;48.314;11.562;2024-01-16T10:40:34;20.40;63.50
1956;DHT22;978;48.314;11.562;2024-01-16T10:43:03;20.40;63.50
1956;DHT22;978;48.314;11.562;2024-01-16T10:45:30;20.40;63.50
1956;DHT22;978;48.314;11.562;2024-01-16T10:48:01;20.40;63.50
1956;DHT22;978;48.314;11.562;2024-01-16T10:50:29;20.40;63.50
1956;DHT22;978;48.314;11.562;2024-01-16T10:52:59;20.40;63.40
1956;DHT22;978;48.314;11.562;2024-01-16T10:55:28;20.40;63.50
1956;DHT22;978;48.314;11.562;2024-01-16T10:57:56;20.40;63.50
1956;DHT22;978;48.314;11.562;2024-01-16T11:00:25;20.40;63.40
1956;DHT22;978;48.314;11.562;2024-01-16T11:02:58;23.50;65.20
1956;DHT22;978;48.314;11.562;2024-01-16T11:05:26;20.40;63.40
1956;DHT22;978;48.314;11.562;2024-01-16T11:07:55;20.40;64.00
1956;DHT22;978;48.314;11.562;2024-01-16T11:10:24;20.40;63.40
1956;DHT22;978;48.314;11.562;2024-01-16T11:12:52;20.40;63.40
1956;DHT22;978;48.314;11.562;2024-01-16T11:15:21;20.40;63.40
1956;DHT22;978;48.314;11.562;2024-01-16T11:17:50;20.40;63.40
1956;DHT22;978;48.314;11.562;2024-01-16T11:20:18;20.40;63.40
1956;DHT22;978;48.314;11.562;2024-01-16T11:22:45;20.40;63.40
1956;DHT22;978;48.314;11.562;2024-01-16T11:25:14;20.40;63.40
1956;DHT22;978;48.314;11.562;2024-01-16T11:27:42;20.40;63.40
1956;DHT22;978;48.314;11.562;2024-01-16T11:30:10;20.40;63.40
1956;DHT22;978;48.314;11.562;2024-01-16T11:32:39;20.40;63.40
1956;DHT22;978;48.314;11.562;2024-01-16T11:35:07;20.40;63.40
1956;DHT22;978;48.314;11.562;2024-01-16T11:37:35;20.40;63.40
1956;DHT22;978;48.314;11.562;2024-01-16T11:40:23;20.40;63.40
1956;DHT22;978;48.314;11.562;2024-01-16T11:42:52;20.40;63.40
1956;DHT22;978;48.314;11.562;2024-01-16T11:45:53;20.40;63.40
1956;DHT22;978;48.314;11.562;2024-01-16T11:48:21;20.40;63.40
1956;DHT22;978;48.314;11.562;2024-01-16T11:50:48;20.40;63.40
1956;DHT22;978;48.314;11.562;2024-01-16T11:53:34;20.40;63.40
1956;DHT22;978;48.314;11.562;2024-01-16T11:56:35;20.40;63.40
1956;DHT22;978;48.314;11.562;2024-01-16T11:59:18;20.40;63.40
1956;DHT22;978;48.314;11.562;2024-01-16T12:01:57;20.40;62.90
1956;DHT22;978;48.314;11.562;2024-01-16T12:04:25;20.40;63.40
1956;DHT22;978;48.314;11.562;2024-01-16T12:06:59;20.40;63.40
1956;DHT22;978;48.314;11.562;2024-01-16T12:09:27;20.40;63.40
1956;DHT22;978;48.314;11.562;2024-01-16T12:11:58;20.40;63.40
1956;DHT22;978;48.314;11.562;2024-01-16T12:14:26;20.40;63.40
1956;DHT22;978;48.314;11.562;2024-01-16T12:16:53;20.40;63.30
1956;DHT22;978;48.314;11.562;2024-01-16T12:19:35;20.40;63.40
1956;DHT22;978;48.314;11.562;2024-01-16T12:22:02;20.40;63.40
1956;DHT22;978;48.314;11.562;2024-01-16T12:24:29;20.40;63.30
1956;DHT22;978;48.314;11.562;2024-01-16T12:26:57;20.40;63.30
1956;DHT22;978;48.314;11.562;2024-01-16T12:29:24;20.40;63.30
1956;DHT22;978;48.314;11.562;2024-01-16T12:31:51;20.40;63.40
1956;DHT22;978;48.314;11.562;2024-01-16T12:34:30;20.40;63.30
1956;DHT22;978;48.314;11.562;2024-01-16T12:37:06;20.40;63.30
1956;DHT22;978;48.314;11.562;2024-01-16T12:39:33;20.40;63.40
1956;DHT22;978;48.314;11.562;2024-01-16T12:42:01;20.40;63.40
1956;DHT22;978;48.314;11.562;2024-01-16T12:44:28;20.40;63.30
1956;DHT22;978;48.314;11.562;2024-01-16T12:46:55;20.40;63.30
1956;DHT22;978;48.314;11.562;2024-01-16T12:49:23;20.40;63.40
1956;DHT22;978;48.314;11.562;2024-01-16T12:51:50;20.40;63.70
1956;DHT22;978;48.314;11.562;2024-01-16T12:54:19;20.40;63.30
1956;DHT22;978;48.314;11.562;2024-01-16T12:56:47;20.40;63.30
1956;DHT22;978;48.314;11.562;2024-01-16T12:59:14;20.40;63.30
1956;DHT22;978;48.314;11.562;2024-01-16T13:01:43;20.40;63.30
1956;DHT22;978;48.314;11.562;2024-01-16T13:04:10;20.40;63.30
1956;DHT22;978;48.314;11.562;2024-01-16T13:06:37;20.40;63.30
1956;DHT22;978;48.314;11.562;2024-01-16T13:09:05;20.40;63.30
1956;DHT22;978;48.314;11.562;2024-01-16T13:11:46;20.40;63.30
1956;DHT22;978;48.314;11.562;2024-01-16T13:14:13;20.40;63.20
1956;DHT22;978;48.314;11.562;2024-01-16T13:16:39;20.40;63.20
1956;DHT22;978;48.314;11.562;2024-01-16T13:19:06;20.40;63.20
1956;DHT22;978;48.314;11.562;2024-01-16T13:21:35;20.40;63.20
1956;DHT22;978;48.314;11.562;2024-01-16T13:24:02;20.40;63.20
1956;DHT22;978;48.314;11.562;2024-01-16T13:26:29;20.40;63.20
1956;DHT22;978;48.314;11.562;2024-01-16T13:29:00;20.40;63.20
1956;DHT22;978;48.314;11.562;2024-01-16T13:31:27;20.40;63.20
1956;DHT22;978;48.314;11.562;2024-01-16T13:33:53;20.40;63.20
1956;DHT22;978;48.314;11.562;2024-01-16T13:36:22;20.40;63.20
1956;DHT22;978;48.314;11.562;2024-01-16T13:38:48;20.40;63.10
1956;DHT22;978;48.314;11.562;2024-01-16T13:41:15;20.40;63.10
1956;DHT22;978;48.314;11.562;2024-01-16T13:43:42;20.40;63.10
1956;DHT22;978;48.314;11.562;2024-01-16T13:46:10;20.40;63.10
1956;DHT22;978;48.314;11.562;2024-01-16T13:48:39;20.40;63.10
1956;DHT22;978;48.314;11.562;2024-01-16T13:51:06;20.40;63.10
1956;DHT22;978;48.314;11.562;2024-01-16T13:53:33;20.40;63.70
1956;DHT22;978;48.314;11.562;2024-01-16T13:56:01;20.40;63.70
1956;DHT22;978;48.314;11.562;2024-01-16T13:58:28;20.40;63.10
1956;DHT22;978;48.314;11.562;2024-01-16T14:00:54;20.40;63.10
1956;DHT22;978;48.314;11.562;2024-01-16T14:03:23;20.40;63.10
1956;DHT22;978;48.314;11.562;2024-01-16T14:05:50;20.40;63.10
1956;DHT22;978;48.314;11.562;2024-01-16T14:08:16;20.40;63.10
1956;DHT22;978;48.314;11.562;2024-01-16T14:10:43;20.40;63.10
1956;DHT22;978;48.314;11.562;2024-01-16T14:13:10;20.40;63.10
1956;DHT22;978;48.314;11.562;2024-01-16T14:15:37;20.40;63.00
1956;DHT22;978;48.314;11.562;2024-01-16T14:18:04;20.40;63.10
1956;DHT22;978;48.314;11.562;2024-01-16T14:20:32;20.40;63.00
1956;DHT22;978;48.314;11.562;2024-01-16T14:22:59;20.40;63.00
1956;DHT22;978;48.314;11.562;2024-01-16T14:25:26;20.30;62.90
1956;DHT22;978;48.314;11.562;2024-01-16T14:27:57;20.40;63.00
1956;DHT22;978;48.314;11.562;2024-01-16T14:30:25;20.40;63.00
1956;DHT22;978;48.314;11.562;2024-01-16T14:32:52;20.40;63.00
1956;DHT22;978;48.314;11.562;2024-01-16T14:35:19;20.40;63.00
1956;DHT22;978;48.314;11.562;2024-01-16T14:37:47;20.40;63.00
1956;DHT22;978;48.314;11.562;2024-01-16T14:40:14;20.40;63.00
1956;DHT22;978;48.314;11.562;2024-01-16T14:42:46;20.40;63.00
1956;DHT22;978;48.314;11.562;2024-01-16T14:45:14;20.40;63.00
1956;DHT22;978;48.314;11.562;2024-01-16T14:47:41;20.40;63.00
1956;DHT22;978;48.314;11.562;2024-01-16T14:50:08;20.40;63.00
1956;DHT22;978;48.314;11.562;2024-01-16T14:52:36;20.40;63.00
1956;DHT22;978;48.314;11.562;2024-01-16T14:55:06;20.40;63.00
1956;DHT22;978;48.314;11.562;2024-01-16T14:57:34;20.40;63.00
1956;DHT22;978;48.314;11.562;2024-01-16T15:00:08;20.40;63.00
1956;DHT22;978;48.314;11.562;2024-01-16T15:02:40;20.40;63.60
1956;DHT22;978;48.314;11.562;2024-01-16T15:05:07;20.40;62.90
1956;DHT22;978;48.314;11.562;2024-01-16T15:10:04;20.40;62.40
1956;DHT22;978;48.314;11.562;2024-01-16T15:12:34;20.40;62.90
1956;DHT22;978;48.314;11.562;2024-01-16T15:15:01;20.40;62.90
1956;DHT22;978;48.314;11.562;2024-01-16T15:17:28;20.40;62.90
1956;DHT22;978;48.314;11.562;2024-01-16T15:19:55;20.40;62.90
1956;DHT22;978;48.314;11.562;2024-01-16T15:22:22;20.40;62.90
1956;DHT22;978;48.314;11.562;2024-01-16T15:24:49;20.40;62.90
1956;DHT22;978;48.314;11.562;2024-01-16T15:27:17;20.40;62.90
1956;DHT22;978;48.314;11.562;2024-01-16T15:29:45;20.40;62.90
1956;DHT22;978;48.314;11.562;2024-01-16T15:32:12;20.40;62.90
1956;DHT22;978;48.314;11.562;2024-01-16T15:34:38;20.40;62.90
1956;DHT22;978;48.314;11.562;2024-01-16T15:37:06;20.40;62.90
1956;DHT22;978;48.314;11.562;2024-01-16T15:39:32;20.30;62.90
1956;DHT22;978;48.314;11.562;2024-01-16T15:41:59;20.40;62.90
1956;DHT22;978;48.314;11.562;2024-01-16T15:44:28;20.30;62.80
1956;DHT22;978;48.314;11.562;2024-01-16T15:46:59;20.40;62.90
1956;DHT22;978;48.314;11.562;2024-01-16T15:49:26;20.40;62.90
1956;DHT22;978;48.314;11.562;2024-01-16T15:51:54;20.40;62.90
1956;DHT22;978;48.314;11.562;2024-01-16T15:54:21;20.40;62.90
1956;DHT22;978;48.314;11.562;2024-01-16T15:56:48;20.40;62.80
1956;DHT22;978;48.314;11.562;2024-01-16T15:59:15;20.40;62.80
1956;DHT22;978;48.314;11.562;2024-01-16T16:01:43;20.40;62.80
1956;DHT22;978;48.314;11.562;2024-01-16T16:04:10;20.40;62.80
1956;DHT22;978;48.314;11.562;2024-01-16T16:06:37;20.40;61.90
1956;DHT22;978;48.314;11.562;2024-01-16T16:09:05;20.30;62.40
1956;DHT22;978;48.314;11.562;2024-01-16T16:11:34;20.40;61.50
1956;DHT22;978;48.314;11.562;2024-01-16T16:14:01;17.90;60.40